createdAt,value
2023-02-22T00:02:11.171Z,15.88
2023-02-22T00:05:17.098Z,14.52
2023-02-22T00:08:24.452Z,14.90
2023-02-22T00:11:27.598Z,13.63
2023-02-22T00:14:30.377Z,14.93
2023-02-22T00:17:34.293Z,17.33
2023-02-22T00:20:40.548Z,15.43
2023-02-22T00:23:49.108Z,15.90
2023-02-22T00:26:55.811Z,15.50
2023-02-22T00:29:59.096Z,14.73
2023-02-22T00:33:02.101Z,16.25
2023-02-22T00:36:05.529Z,16.25
2023-02-22T00:39:10.038Z,13.80
2023-02-22T00:42:14.431Z,16.80
2023-02-22T00:45:21.890Z,15.10
2023-02-22T00:48:25.559Z,18.45
2023-02-22T00:51:28.983Z,15.18
2023-02-22T00:54:31.989Z,16.50
2023-02-22T00:57:35.371Z,14.80
2023-02-22T01:00:41.786Z,15.02
2023-02-22T01:03:45.156Z,14.38
2023-02-22T01:06:48.354Z,13.73
2023-02-22T01:09:51.127Z,14.73
2023-02-22T01:12:54.985Z,15.23
2023-02-22T01:15:57.694Z,16.42
2023-02-22T01:19:01.558Z,13.52
2023-02-22T01:22:05.666Z,14.23
2023-02-22T01:25:10.789Z,16.92
2023-02-22T01:28:14.078Z,13.30
2023-02-22T01:31:18.045Z,15.32
2023-02-22T01:34:22.907Z,13.95
2023-02-22T01:37:25.851Z,18.85
2023-02-22T01:40:36.922Z,15.93
2023-02-22T01:43:40.021Z,20.77
2023-02-22T01:46:42.830Z,17.85
2023-02-22T01:49:50.285Z,16.58
2023-02-22T01:52:53.309Z,17.60
2023-02-22T01:55:57.296Z,16.70
2023-02-22T01:59:03.896Z,15.00
2023-02-22T02:02:07.405Z,16.12
2023-02-22T02:05:11.011Z,16.73
2023-02-22T02:08:39.207Z,15.10
2023-02-22T02:11:42.774Z,15.50
2023-02-22T02:14:45.924Z,14.63
2023-02-22T02:17:50.441Z,17.70
2023-02-22T02:21:10.573Z,13.77
2023-02-22T02:24:33.229Z,16.77
2023-02-22T02:27:45.298Z,13.27
2023-02-22T02:31:11.182Z,16.13
2023-02-22T02:34:32.297Z,15.35
2023-02-22T02:38:22.317Z,14.13
2023-02-22T02:41:30.170Z,16.12
2023-02-22T02:44:38.944Z,14.93
2023-02-22T02:47:48.123Z,14.67
2023-02-22T02:50:51.539Z,16.75
2023-02-22T02:53:56.134Z,16.35
2023-02-22T02:56:59.298Z,14.15
2023-02-22T03:00:02.355Z,15.00
2023-02-22T03:03:25.312Z,13.77
2023-02-22T03:07:08.520Z,16.20
2023-02-22T03:10:43.416Z,15.27
2023-02-22T03:14:30.004Z,16.02
2023-02-22T03:17:52.842Z,16.62
2023-02-22T03:21:29.944Z,15.33
2023-02-22T03:25:02.325Z,18.02
2023-02-22T03:28:11.924Z,18.52
2023-02-22T03:31:21.759Z,18.37
2023-02-22T03:34:35.342Z,18.02
2023-02-22T03:37:46.714Z,15.50
2023-02-22T03:40:54.658Z,16.95
2023-02-22T03:44:05.705Z,19.45
2023-02-22T03:47:14.459Z,18.42
2023-02-22T03:50:20.380Z,15.77
2023-02-22T03:53:23.678Z,18.63
2023-02-22T03:56:36.081Z,19.67
2023-02-22T03:59:40.451Z,36.28
2023-02-22T04:02:43.257Z,123.43
2023-02-22T04:05:47.204Z,82.53
2023-02-22T04:08:50.054Z,68.97
2023-02-22T04:11:53.384Z,59.58
2023-02-22T04:14:56.364Z,28.77
2023-02-22T04:18:00.172Z,26.58
2023-02-22T04:21:04.329Z,17.98
2023-02-22T04:24:08.080Z,18.90
2023-02-22T04:27:10.960Z,15.23
2023-02-22T04:30:16.998Z,19.55
2023-02-22T04:33:19.936Z,19.17
2023-02-22T04:36:23.195Z,19.40
2023-02-22T04:39:26.197Z,20.53
2023-02-22T04:42:29.975Z,19.85
2023-02-22T04:45:32.723Z,17.75
2023-02-22T04:48:36.734Z,25.08
2023-02-22T04:51:39.722Z,24.23
2023-02-22T04:54:43.208Z,29.13
2023-02-22T04:57:46.024Z,33.65
2023-02-22T05:00:49.253Z,23.70
2023-02-22T05:03:52.094Z,25.37
2023-02-22T05:06:55.210Z,25.00
2023-02-22T05:09:58.013Z,23.07
2023-02-22T05:13:01.958Z,23.62
2023-02-22T05:16:06.175Z,21.80
2023-02-22T05:19:09.376Z,21.42
2023-02-22T05:22:12.012Z,16.45
2023-02-22T05:25:15.179Z,14.90
2023-02-22T05:28:17.919Z,18.90
2023-02-22T05:31:21.023Z,17.70
2023-02-22T05:34:24.150Z,22.62
2023-02-22T05:37:27.647Z,40.92
2023-02-22T05:40:31.692Z,43.90
2023-02-22T05:43:34.773Z,29.08
2023-02-22T05:46:37.552Z,45.28
2023-02-22T05:49:40.829Z,37.00
2023-02-22T05:52:43.982Z,25.60
2023-02-22T05:55:47.175Z,19.40
2023-02-22T05:58:50.167Z,27.33
2023-02-22T06:01:53.293Z,26.48
2023-02-22T06:04:56.535Z,20.02
2023-02-22T06:07:59.597Z,17.75
2023-02-22T06:11:02.765Z,17.40
2023-02-22T06:14:05.494Z,18.37
2023-02-22T06:17:08.516Z,14.70
2023-02-22T06:20:13.649Z,16.17
2023-02-22T06:23:16.852Z,19.85
2023-02-22T06:26:20.045Z,17.07
2023-02-22T06:29:27.630Z,17.95
2023-02-22T06:32:30.389Z,18.67
2023-02-22T06:35:33.453Z,23.12
2023-02-22T06:38:36.209Z,25.65
2023-02-22T06:41:39.351Z,17.37
2023-02-22T06:44:42.027Z,18.95
2023-02-22T06:47:45.455Z,24.73
2023-02-22T06:50:48.121Z,31.08
2023-02-22T06:53:51.171Z,22.90
2023-02-22T06:56:53.825Z,31.47
2023-02-22T06:59:57.625Z,27.58
2023-02-22T07:03:00.945Z,38.45
2023-02-22T07:06:05.064Z,25.02
2023-02-22T07:09:07.840Z,34.50
2023-02-22T07:12:11.076Z,25.20
2023-02-22T07:15:14.232Z,27.67
2023-02-22T07:18:17.322Z,37.20
2023-02-22T07:21:20.070Z,41.08
2023-02-22T07:24:23.177Z,37.40
2023-02-22T07:27:25.900Z,30.73
2023-02-22T07:30:31.662Z,30.15
2023-02-22T07:33:35.671Z,28.08
2023-02-22T07:36:38.801Z,21.27
2023-02-22T07:39:43.904Z,26.95
2023-02-22T07:43:14.613Z,31.13
2023-02-22T07:46:17.379Z,19.20
2023-02-22T07:49:20.552Z,20.98
2023-02-22T07:52:23.184Z,22.60
2023-02-22T07:55:28.831Z,19.12
2023-02-22T07:58:32.773Z,26.27
2023-02-22T08:01:37.448Z,17.67
2023-02-22T08:04:40.595Z,23.83
2023-02-22T08:07:43.549Z,20.62
2023-02-22T08:10:47.458Z,20.12
2023-02-22T08:13:50.209Z,25.03
2023-02-22T08:16:53.331Z,25.33
2023-02-22T08:19:56.117Z,21.75
2023-02-22T08:22:59.092Z,18.62
2023-02-22T08:26:08.064Z,19.05
2023-02-22T08:29:11.069Z,22.83
2023-02-22T08:32:13.973Z,21.77
2023-02-22T08:35:18.593Z,24.63
2023-02-22T08:38:25.172Z,22.42
2023-02-22T08:41:28.192Z,18.95
2023-02-22T08:44:30.867Z,22.33
2023-02-22T08:47:34.475Z,20.70
2023-02-22T08:50:38.350Z,16.10
2023-02-22T08:53:41.395Z,22.73
2023-02-22T08:56:45.153Z,21.23
2023-02-22T08:59:48.143Z,17.53
2023-02-22T09:02:54.268Z,14.45
2023-02-22T09:05:59.709Z,16.23
2023-02-22T09:09:02.951Z,20.12
2023-02-22T09:12:06.333Z,15.77
2023-02-22T09:15:09.799Z,16.50
2023-02-22T09:18:14.860Z,15.95
2023-02-22T09:21:18.170Z,13.73
2023-02-22T09:24:21.714Z,10.93
2023-02-22T09:27:24.600Z,12.15
2023-02-22T09:30:34.075Z,14.47
2023-02-22T09:33:36.880Z,17.27
2023-02-22T09:36:44.360Z,12.80
2023-02-22T09:39:47.182Z,12.30
2023-02-22T09:43:01.072Z,12.07
2023-02-22T09:46:19.718Z,14.90
2023-02-22T09:49:40.069Z,13.27
2023-02-22T09:52:58.072Z,12.35
2023-02-22T09:56:06.998Z,10.63
2023-02-22T09:59:15.861Z,11.35
2023-02-22T10:02:31.843Z,12.20
2023-02-22T10:05:39.984Z,10.52
2023-02-22T10:08:45.062Z,9.93
2023-02-22T10:12:16.544Z,11.30
2023-02-22T10:15:41.598Z,9.75
2023-02-22T10:18:48.179Z,14.87
2023-02-22T10:21:50.804Z,9.80
2023-02-22T10:25:00.202Z,10.13
2023-02-22T10:28:28.394Z,9.32
2023-02-22T10:31:34.138Z,9.38
2023-02-22T10:34:43.391Z,10.50
2023-02-22T10:37:48.453Z,11.30
2023-02-22T10:41:17.542Z,16.77
2023-02-22T10:44:20.714Z,12.88
2023-02-22T10:47:24.852Z,10.52
2023-02-22T10:50:32.260Z,12.97
2023-02-22T10:53:38.484Z,9.15
2023-02-22T10:56:55.171Z,9.30
2023-02-22T10:59:58.549Z,9.18
2023-02-22T11:03:18.129Z,9.43
2023-02-22T11:06:21.943Z,9.77
2023-02-22T11:09:25.678Z,9.75
2023-02-22T11:12:32.863Z,9.32
2023-02-22T11:15:36.212Z,11.90
2023-02-22T11:18:39.053Z,12.57
2023-02-22T11:21:43.288Z,8.67
2023-02-22T11:25:02.604Z,9.02
2023-02-22T11:28:15.097Z,10.45
2023-02-22T11:31:21.997Z,10.60
2023-02-22T11:34:26.695Z,12.25
2023-02-22T11:37:36.745Z,10.10
2023-02-22T11:40:40.370Z,10.02
2023-02-22T11:43:48.216Z,9.70
2023-02-22T11:46:55.863Z,9.30
2023-02-22T11:49:58.617Z,10.13
2023-02-22T11:53:40.097Z,9.27
2023-02-22T11:56:49.986Z,9.70
2023-02-22T12:00:17.034Z,10.05
2023-02-22T12:03:50.100Z,9.90
2023-02-22T12:07:10.781Z,12.88
2023-02-22T12:10:47.223Z,29.70
2023-02-22T12:14:07.831Z,16.25
2023-02-22T12:17:26.180Z,10.43
2023-02-22T12:20:47.815Z,11.30
2023-02-22T12:24:07.486Z,10.05
2023-02-22T12:27:22.604Z,8.23
2023-02-22T12:30:34.571Z,9.00
2023-02-22T12:34:20.174Z,9.13
2023-02-22T12:37:29.168Z,9.75
2023-02-22T12:40:54.761Z,9.25
2023-02-22T12:44:10.130Z,10.10
2023-02-22T12:47:21.839Z,11.23
2023-02-22T12:50:29.764Z,12.07
2023-02-22T12:53:37.307Z,11.40
2023-02-22T12:56:56.283Z,11.90
2023-02-22T13:00:10.454Z,12.10
2023-02-22T13:03:35.148Z,12.88
2023-02-22T13:07:08.865Z,13.20
2023-02-22T13:10:31.527Z,11.10
2023-02-22T13:13:55.630Z,11.63
2023-02-22T13:17:24.941Z,13.97
2023-02-22T13:20:34.436Z,11.45
2023-02-22T13:23:50.637Z,12.37
2023-02-22T13:27:22.969Z,10.38
2023-02-22T13:30:51.793Z,10.98
2023-02-22T13:34:40.347Z,10.43
2023-02-22T13:38:05.978Z,11.48
2023-02-22T13:41:20.851Z,14.82
2023-02-22T13:45:13.299Z,11.80
2023-02-22T13:48:24.897Z,10.82
2023-02-22T13:51:37.180Z,11.80
2023-02-22T13:55:11.334Z,11.93
2023-02-22T13:58:15.612Z,10.63
2023-02-22T14:01:42.682Z,13.77
2023-02-22T14:04:45.780Z,13.62
2023-02-22T14:07:49.578Z,12.27
2023-02-22T14:10:55.951Z,11.50
2023-02-22T14:14:01.204Z,10.70
2023-02-22T14:17:28.983Z,12.45
2023-02-22T14:20:40.400Z,12.27
2023-02-22T14:23:45.958Z,12.70
2023-02-22T14:26:59.761Z,11.70
2023-02-22T14:30:02.978Z,13.05
2023-02-22T14:33:44.346Z,12.93
2023-02-22T14:36:58.868Z,11.65
2023-02-22T14:40:13.253Z,13.70
2023-02-22T14:43:21.319Z,11.35
2023-02-22T14:46:29.679Z,12.32
2023-02-22T14:49:42.319Z,11.80
2023-02-22T14:52:48.993Z,12.23
2023-02-22T14:56:02.863Z,22.33
2023-02-22T14:59:17.870Z,12.50
2023-02-22T15:02:26.133Z,37.05
2023-02-22T15:05:38.712Z,17.52
2023-02-22T15:08:48.959Z,13.15
2023-02-22T15:12:04.228Z,21.90
2023-02-22T15:15:14.529Z,17.62
2023-02-22T15:18:22.255Z,14.02
2023-02-22T15:21:28.562Z,12.82
2023-02-22T15:24:34.903Z,13.77
2023-02-22T15:27:41.437Z,25.23
2023-02-22T15:30:44.772Z,24.27
2023-02-22T15:33:47.890Z,17.12
2023-02-22T15:36:54.790Z,16.15
2023-02-22T15:40:21.116Z,24.10
2023-02-22T15:43:25.415Z,15.93
2023-02-22T15:46:29.222Z,17.00
2023-02-22T15:49:37.241Z,21.05
2023-02-22T15:52:40.375Z,15.30
2023-02-22T15:55:50.054Z,15.73
2023-02-22T15:59:00.996Z,14.07
2023-02-22T16:02:04.341Z,15.48
2023-02-22T16:05:12.410Z,15.65
2023-02-22T16:08:23.473Z,18.45
2023-02-22T16:11:32.189Z,18.85
2023-02-22T16:14:35.016Z,18.70
2023-02-22T16:18:02.347Z,19.65
2023-02-22T16:21:13.282Z,14.80
2023-02-22T16:24:27.036Z,14.27
2023-02-22T16:27:29.914Z,15.23
2023-02-22T16:30:38.665Z,22.77
2023-02-22T16:33:43.517Z,22.30
2023-02-22T16:36:52.059Z,19.95
2023-02-22T16:39:56.847Z,24.42
2023-02-22T16:43:03.049Z,21.37
2023-02-22T16:46:07.232Z,22.50
2023-02-22T16:49:12.826Z,23.95
2023-02-22T16:52:15.963Z,20.05
2023-02-22T16:55:22.740Z,22.90
2023-02-22T16:58:30.073Z,37.80
2023-02-22T17:01:35.209Z,60.27
2023-02-22T17:04:40.414Z,54.25
2023-02-22T17:07:45.417Z,61.00
2023-02-22T17:10:51.751Z,67.40
2023-02-22T17:13:55.903Z,68.30
2023-02-22T17:16:59.919Z,64.33
2023-02-22T17:20:12.011Z,53.83
2023-02-22T17:23:15.592Z,66.60
2023-02-22T17:26:19.697Z,60.78
2023-02-22T17:29:23.152Z,92.75
2023-02-22T17:32:26.927Z,81.40
2023-02-22T17:35:36.507Z,70.82
2023-02-22T17:38:42.662Z,73.55
2023-02-22T17:41:46.212Z,64.10
2023-02-22T17:44:50.333Z,69.10
2023-02-22T17:47:53.657Z,62.53
2023-02-22T17:50:57.373Z,58.50
2023-02-22T17:54:02.177Z,60.78
2023-02-22T17:57:06.135Z,60.42
2023-02-22T18:00:16.326Z,61.90
2023-02-22T18:03:26.173Z,64.77
2023-02-22T18:06:33.393Z,60.22
2023-02-22T18:09:38.970Z,63.92
2023-02-22T18:12:44.308Z,61.37
2023-02-22T18:15:49.231Z,65.12
2023-02-22T18:18:54.203Z,71.80
2023-02-22T18:22:00.405Z,63.92
2023-02-22T18:25:04.241Z,49.15
2023-02-22T18:28:09.128Z,47.25
2023-02-22T18:31:16.020Z,71.50
2023-02-22T18:34:19.678Z,75.40
2023-02-22T18:37:24.674Z,79.07
2023-02-22T18:40:32.433Z,83.78
2023-02-22T18:43:38.653Z,74.45
2023-02-22T18:46:46.586Z,51.05
2023-02-22T18:49:51.393Z,58.17
2023-02-22T18:52:56.160Z,53.20
2023-02-22T18:56:08.028Z,88.20
2023-02-22T18:59:13.435Z,43.83
2023-02-22T19:02:21.935Z,40.28
2023-02-22T19:05:25.805Z,37.77
2023-02-22T19:08:33.334Z,43.65
2023-02-22T19:11:39.101Z,39.28
2023-02-22T19:14:43.178Z,35.45
2023-02-22T19:17:47.946Z,33.03
2023-02-22T19:20:59.968Z,37.47
2023-02-22T19:24:06.808Z,38.70
2023-02-22T19:27:11.763Z,42.40
2023-02-22T19:30:20.857Z,39.80
2023-02-22T19:33:26.336Z,48.58
2023-02-22T19:36:32.405Z,43.87
2023-02-22T19:39:39.136Z,49.25
2023-02-22T19:42:46.561Z,49.25
2023-02-22T19:45:50.460Z,50.05
2023-02-22T19:48:59.122Z,47.67
2023-02-22T19:52:07.885Z,55.47
2023-02-22T19:55:19.917Z,73.10
2023-02-22T19:58:24.506Z,62.95
2023-02-22T20:01:33.979Z,90.65
2023-02-22T20:04:39.061Z,77.03
2023-02-22T20:07:44.795Z,82.43
2023-02-22T20:10:49.111Z,80.97
2023-02-22T20:13:57.656Z,88.00
2023-02-22T20:17:02.447Z,107.75
2023-02-22T20:20:07.586Z,99.53
2023-02-22T20:23:15.675Z,85.80
2023-02-22T20:26:24.942Z,85.80
2023-02-22T20:29:32.352Z,78.37
2023-02-22T20:32:40.912Z,80.35
2023-02-22T20:35:46.517Z,82.85
2023-02-22T20:38:55.038Z,77.47
2023-02-22T20:42:02.151Z,70.10
2023-02-22T20:45:07.186Z,66.53
2023-02-22T20:48:12.351Z,67.78
2023-02-22T20:51:17.460Z,61.65
2023-02-22T20:54:22.366Z,66.63
2023-02-22T20:57:25.776Z,64.10
2023-02-22T21:00:30.816Z,57.38
2023-02-22T21:03:36.088Z,62.50
2023-02-22T21:06:42.361Z,58.00
2023-02-22T21:09:46.326Z,62.10
2023-02-22T21:12:52.292Z,62.88
2023-02-22T21:15:56.300Z,61.78
2023-02-22T21:19:04.524Z,60.95
2023-02-22T21:22:09.011Z,58.67
2023-02-22T21:25:14.723Z,55.57
2023-02-22T21:28:18.713Z,52.00
2023-02-22T21:31:24.960Z,53.35
2023-02-22T21:34:32.051Z,58.17
2023-02-22T21:37:35.826Z,51.60
2023-02-22T21:40:39.552Z,60.97
2023-02-22T21:43:44.715Z,54.53
2023-02-22T21:46:51.035Z,62.03
2023-02-22T21:49:54.888Z,57.10
2023-02-22T21:52:58.405Z,52.10
2023-02-22T21:56:06.021Z,48.97
2023-02-22T21:59:15.739Z,43.65
2023-02-22T22:02:21.111Z,47.58
2023-02-22T22:05:34.868Z,48.90
2023-02-22T22:08:40.347Z,64.32
2023-02-22T22:11:43.419Z,59.70
2023-02-22T22:14:46.195Z,50.00
2023-02-22T22:17:49.316Z,50.30
2023-02-22T22:20:52.069Z,54.75
2023-02-22T22:23:56.343Z,52.83
2023-02-22T22:27:03.826Z,56.10
2023-02-22T22:30:08.333Z,50.17
2023-02-22T22:33:11.590Z,53.15
2023-02-22T22:36:17.215Z,48.40
2023-02-22T22:39:21.337Z,52.05
2023-02-22T22:42:25.142Z,49.40
2023-02-22T22:45:27.961Z,55.00
2023-02-22T22:48:36.168Z,53.85
2023-02-22T22:51:41.170Z,49.35
2023-02-22T22:54:44.342Z,48.87
2023-02-22T22:57:47.146Z,48.90
2023-02-22T23:00:50.254Z,29.85
2023-02-22T23:04:01.560Z,35.42
2023-02-22T23:07:06.794Z,43.85
2023-02-22T23:10:12.832Z,32.60
2023-02-22T23:13:15.888Z,31.43
2023-02-22T23:16:20.022Z,29.55
2023-02-22T23:19:23.045Z,27.62
2023-02-22T23:22:27.591Z,26.08
2023-02-22T23:25:30.629Z,22.20
2023-02-22T23:28:33.329Z,24.53
2023-02-22T23:31:39.846Z,22.55
2023-02-22T23:34:42.720Z,19.62
2023-02-22T23:37:53.124Z,23.15
2023-02-22T23:40:57.821Z,23.25
2023-02-22T23:44:01.119Z,23.23
2023-02-22T23:47:04.529Z,21.52
2023-02-22T23:50:13.651Z,23.87
2023-02-22T23:53:16.468Z,22.02
2023-02-22T23:56:22.152Z,21.90
2023-02-22T23:59:26.778Z,21.57
